East Elmore, Vermont
Current Conditions -  °F | °C
As of 11:15 PM on Tuesday 25 Nov 2014 (Local Time) from KCDA Reporting Station
Overcast Overcast  
Wind Chill: 40°   Ceiling: 4700
Heat Index: 40°   Visibility: 10mi
Dew Point: 24°   Wind: 0mph
Humidity: 54%   Direction: NA
Pressure: 30.05"   Gusts: NA
Location:  44.5359°N, 72.4842°W
Report Text: KCDA 260415Z AUTO 00000KT 10SM OVC047 04/M04 A3005 RMK AO2 T00421043
Loading
Personal Weather Stations






























Interactive Weather Map New forecast layout! Learn more

10-Day Weather Forecast

Advertisements
Track Severe Weather on mobile